sensor_id;sensor_type;location;lat;lon;timestamp;P1;durP1;ratioP1;P2;durP2;ratioP2
47009;SDS011;59230;54.164;-3.124;2023-04-24T00:02:22;9.90;;;2.15;;
47009;SDS011;59230;54.164;-3.124;2023-04-24T00:04:48;5.47;;;1.50;;
47009;SDS011;59230;54.164;-3.124;2023-04-24T00:07:14;12.05;;;2.17;;
47009;SDS011;59230;54.164;-3.124;2023-04-24T00:09:42;12.23;;;2.40;;
47009;SDS011;59230;54.164;-3.124;2023-04-24T00:12:08;7.80;;;1.95;;
47009;SDS011;59230;54.164;-3.124;2023-04-24T00:14:34;5.90;;;1.90;;
47009;SDS011;59230;54.164;-3.124;2023-04-24T00:17:00;8.88;;;2.10;;
47009;SDS011;59230;54.164;-3.124;2023-04-24T00:19:27;13.40;;;2.13;;
47009;SDS011;59230;54.164;-3.124;2023-04-24T00:21:53;11.18;;;2.10;;
47009;SDS011;59230;54.164;-3.124;2023-04-24T00:24:19;9.65;;;2.40;;
47009;SDS011;59230;54.164;-3.124;2023-04-24T00:26:45;11.43;;;2.45;;
47009;SDS011;59230;54.164;-3.124;2023-04-24T00:29:10;9.82;;;2.13;;
47009;SDS011;59230;54.164;-3.124;2023-04-24T00:31:36;5.75;;;1.73;;
47009;SDS011;59230;54.164;-3.124;2023-04-24T00:34:01;11.68;;;2.13;;
47009;SDS011;59230;54.164;-3.124;2023-04-24T00:36:28;13.10;;;2.22;;
47009;SDS011;59230;54.164;-3.124;2023-04-24T00:38:54;11.43;;;2.40;;
47009;SDS011;59230;54.164;-3.124;2023-04-24T00:41:20;12.25;;;1.98;;
47009;SDS011;59230;54.164;-3.124;2023-04-24T00:43:46;9.98;;;2.00;;
47009;SDS011;59230;54.164;-3.124;2023-04-24T00:46:12;4.93;;;1.55;;
47009;SDS011;59230;54.164;-3.124;2023-04-24T00:48:38;9.02;;;2.00;;
47009;SDS011;59230;54.164;-3.124;2023-04-24T00:51:04;10.35;;;2.08;;
47009;SDS011;59230;54.164;-3.124;2023-04-24T00:53:30;11.45;;;1.85;;
47009;SDS011;59230;54.164;-3.124;2023-04-24T00:55:55;8.73;;;2.17;;
47009;SDS011;59230;54.164;-3.124;2023-04-24T00:58:22;12.10;;;2.10;;
47009;SDS011;59230;54.164;-3.124;2023-04-24T01:00:48;10.05;;;2.30;;
47009;SDS011;59230;54.164;-3.124;2023-04-24T01:03:15;12.55;;;2.53;;
47009;SDS011;59230;54.164;-3.124;2023-04-24T01:05:41;8.82;;;2.00;;
47009;SDS011;59230;54.164;-3.124;2023-04-24T01:08:06;9.55;;;1.90;;
47009;SDS011;59230;54.164;-3.124;2023-04-24T01:10:33;12.57;;;2.85;;
47009;SDS011;59230;54.164;-3.124;2023-04-24T01:12:59;13.55;;;2.20;;
47009;SDS011;59230;54.164;-3.124;2023-04-24T01:15:25;12.65;;;2.45;;
47009;SDS011;59230;54.164;-3.124;2023-04-24T01:17:50;9.23;;;2.53;;
47009;SDS011;59230;54.164;-3.124;2023-04-24T01:20:16;9.93;;;3.03;;
47009;SDS011;59230;54.164;-3.124;2023-04-24T01:22:42;9.25;;;2.08;;
47009;SDS011;59230;54.164;-3.124;2023-04-24T01:25:07;10.25;;;2.42;;
47009;SDS011;59230;54.164;-3.124;2023-04-24T01:27:33;8.52;;;2.20;;
47009;SDS011;59230;54.164;-3.124;2023-04-24T01:29:59;6.35;;;1.70;;
47009;SDS011;59230;54.164;-3.124;2023-04-24T01:32:25;9.10;;;1.92;;
47009;SDS011;59230;54.164;-3.124;2023-04-24T01:34:50;8.52;;;1.83;;
47009;SDS011;59230;54.164;-3.124;2023-04-24T01:37:16;8.00;;;2.03;;
47009;SDS011;59230;54.164;-3.124;2023-04-24T01:39:42;6.75;;;1.92;;
47009;SDS011;59230;54.164;-3.124;2023-04-24T01:42:08;8.02;;;1.85;;
47009;SDS011;59230;54.164;-3.124;2023-04-24T01:44:34;8.73;;;1.92;;
47009;SDS011;59230;54.164;-3.124;2023-04-24T01:47:00;10.45;;;1.83;;
47009;SDS011;59230;54.164;-3.124;2023-04-24T01:49:26;12.55;;;2.40;;
47009;SDS011;59230;54.164;-3.124;2023-04-24T01:51:52;8.50;;;2.00;;
47009;SDS011;59230;54.164;-3.124;2023-04-24T01:54:17;9.07;;;1.85;;
47009;SDS011;59230;54.164;-3.124;2023-04-24T01:56:43;5.68;;;1.88;;
47009;SDS011;59230;54.164;-3.124;2023-04-24T01:59:11;5.57;;;2.08;;
47009;SDS011;59230;54.164;-3.124;2023-04-24T02:01:37;6.97;;;1.60;;
47009;SDS011;59230;54.164;-3.124;2023-04-24T02:04:04;7.47;;;1.75;;
47009;SDS011;59230;54.164;-3.124;2023-04-24T02:06:30;8.50;;;1.77;;
47009;SDS011;59230;54.164;-3.124;2023-04-24T02:08:56;11.68;;;1.80;;
47009;SDS011;59230;54.164;-3.124;2023-04-24T02:11:23;8.10;;;1.88;;
47009;SDS011;59230;54.164;-3.124;2023-04-24T02:13:48;5.70;;;1.65;;
47009;SDS011;59230;54.164;-3.124;2023-04-24T02:16:15;14.60;;;2.05;;
47009;SDS011;59230;54.164;-3.124;2023-04-24T02:18:41;9.85;;;2.22;;
47009;SDS011;59230;54.164;-3.124;2023-04-24T02:21:06;9.77;;;2.08;;
47009;SDS011;59230;54.164;-3.124;2023-04-24T02:23:31;5.85;;;1.60;;
47009;SDS011;59230;54.164;-3.124;2023-04-24T02:25:57;9.60;;;1.80;;
47009;SDS011;59230;54.164;-3.124;2023-04-24T02:28:22;6.35;;;1.50;;
47009;SDS011;59230;54.164;-3.124;2023-04-24T02:30:48;8.65;;;1.52;;
47009;SDS011;59230;54.164;-3.124;2023-04-24T02:33:13;5.97;;;1.70;;
47009;SDS011;59230;54.164;-3.124;2023-04-24T02:35:38;11.45;;;2.22;;
47009;SDS011;59230;54.164;-3.124;2023-04-24T02:38:04;9.88;;;2.33;;
47009;SDS011;59230;54.164;-3.124;2023-04-24T02:40:29;7.07;;;1.70;;
47009;SDS011;59230;54.164;-3.124;2023-04-24T02:42:55;8.77;;;1.90;;
47009;SDS011;59230;54.164;-3.124;2023-04-24T02:45:20;9.90;;;2.03;;
47009;SDS011;59230;54.164;-3.124;2023-04-24T02:47:46;9.38;;;1.60;;
47009;SDS011;59230;54.164;-3.124;2023-04-24T02:50:11;11.63;;;2.00;;
47009;SDS011;59230;54.164;-3.124;2023-04-24T02:52:37;10.10;;;1.92;;
47009;SDS011;59230;54.164;-3.124;2023-04-24T02:55:02;7.40;;;1.75;;
47009;SDS011;59230;54.164;-3.124;2023-04-24T02:57:28;13.98;;;2.58;;
47009;SDS011;59230;54.164;-3.124;2023-04-24T02:59:53;7.25;;;1.95;;
47009;SDS011;59230;54.164;-3.124;2023-04-24T03:02:19;16.77;;;2.33;;
47009;SDS011;59230;54.164;-3.124;2023-04-24T03:04:45;15.88;;;2.60;;
47009;SDS011;59230;54.164;-3.124;2023-04-24T03:07:12;7.35;;;1.80;;
47009;SDS011;59230;54.164;-3.124;2023-04-24T03:09:39;8.02;;;2.08;;
47009;SDS011;59230;54.164;-3.124;2023-04-24T03:12:05;7.80;;;1.77;;
47009;SDS011;59230;54.164;-3.124;2023-04-24T03:14:31;9.75;;;2.03;;
47009;SDS011;59230;54.164;-3.124;2023-04-24T03:16:56;11.10;;;2.13;;
47009;SDS011;59230;54.164;-3.124;2023-04-24T03:19:22;9.50;;;2.05;;
47009;SDS011;59230;54.164;-3.124;2023-04-24T03:21:47;5.65;;;1.80;;
47009;SDS011;59230;54.164;-3.124;2023-04-24T03:24:13;10.63;;;2.40;;
47009;SDS011;59230;54.164;-3.124;2023-04-24T03:26:39;6.50;;;1.90;;
47009;SDS011;59230;54.164;-3.124;2023-04-24T03:29:04;10.55;;;2.10;;
47009;SDS011;59230;54.164;-3.124;2023-04-24T03:31:29;9.88;;;1.92;;
47009;SDS011;59230;54.164;-3.124;2023-04-24T03:33:55;5.93;;;1.65;;
47009;SDS011;59230;54.164;-3.124;2023-04-24T03:36:20;9.90;;;2.15;;
47009;SDS011;59230;54.164;-3.124;2023-04-24T03:38:46;8.18;;;1.58;;
47009;SDS011;59230;54.164;-3.124;2023-04-24T03:41:11;9.43;;;2.10;;
47009;SDS011;59230;54.164;-3.124;2023-04-24T03:43:37;7.13;;;1.75;;
47009;SDS011;59230;54.164;-3.124;2023-04-24T03:46:03;6.80;;;1.90;;
47009;SDS011;59230;54.164;-3.124;2023-04-24T03:48:29;6.88;;;1.60;;
47009;SDS011;59230;54.164;-3.124;2023-04-24T03:50:55;9.43;;;1.85;;
47009;SDS011;59230;54.164;-3.124;2023-04-24T03:53:20;8.73;;;2.13;;
47009;SDS011;59230;54.164;-3.124;2023-04-24T03:55:46;8.65;;;2.17;;
47009;SDS011;59230;54.164;-3.124;2023-04-24T03:58:11;12.20;;;2.60;;
47009;SDS011;59230;54.164;-3.124;2023-04-24T04:00:39;9.05;;;1.77;;
47009;SDS011;59230;54.164;-3.124;2023-04-24T04:03:05;10.57;;;2.10;;
47009;SDS011;59230;54.164;-3.124;2023-04-24T04:05:31;9.13;;;1.90;;
47009;SDS011;59230;54.164;-3.124;2023-04-24T04:07:56;9.70;;;1.90;;
47009;SDS011;59230;54.164;-3.124;2023-04-24T04:10:21;6.10;;;1.67;;
47009;SDS011;59230;54.164;-3.124;2023-04-24T04:12:47;12.60;;;2.80;;
47009;SDS011;59230;54.164;-3.124;2023-04-24T04:15:12;3.97;;;1.45;;
47009;SDS011;59230;54.164;-3.124;2023-04-24T04:17:38;12.02;;;2.40;;
47009;SDS011;59230;54.164;-3.124;2023-04-24T04:20:04;11.57;;;2.13;;
47009;SDS011;59230;54.164;-3.124;2023-04-24T04:22:34;12.90;;;2.20;;
47009;SDS011;59230;54.164;-3.124;2023-04-24T04:24:59;12.10;;;3.15;;
47009;SDS011;59230;54.164;-3.124;2023-04-24T04:27:25;12.00;;;2.58;;
47009;SDS011;59230;54.164;-3.124;2023-04-24T04:29:51;11.40;;;2.10;;
47009;SDS011;59230;54.164;-3.124;2023-04-24T04:32:17;11.70;;;2.35;;
47009;SDS011;59230;54.164;-3.124;2023-04-24T04:34:43;10.15;;;2.53;;
47009;SDS011;59230;54.164;-3.124;2023-04-24T04:37:10;11.52;;;2.22;;
47009;SDS011;59230;54.164;-3.124;2023-04-24T04:39:37;15.13;;;3.08;;
47009;SDS011;59230;54.164;-3.124;2023-04-24T04:42:02;13.63;;;2.30;;
47009;SDS011;59230;54.164;-3.124;2023-04-24T04:44:28;11.52;;;2.50;;
47009;SDS011;59230;54.164;-3.124;2023-04-24T04:46:55;13.38;;;2.67;;
47009;SDS011;59230;54.164;-3.124;2023-04-24T04:49:21;14.15;;;2.70;;
47009;SDS011;59230;54.164;-3.124;2023-04-24T04:51:48;15.90;;;2.80;;
47009;SDS011;59230;54.164;-3.124;2023-04-24T04:54:15;16.60;;;3.17;;
47009;SDS011;59230;54.164;-3.124;2023-04-24T04:56:41;15.32;;;2.47;;
47009;SDS011;59230;54.164;-3.124;2023-04-24T04:59:06;10.38;;;2.30;;
47009;SDS011;59230;54.164;-3.124;2023-04-24T05:01:32;16.13;;;3.00;;
47009;SDS011;59230;54.164;-3.124;2023-04-24T05:03:57;15.40;;;3.03;;
47009;SDS011;59230;54.164;-3.124;2023-04-24T05:06:22;14.55;;;2.97;;
47009;SDS011;59230;54.164;-3.124;2023-04-24T05:08:48;12.63;;;3.72;;
47009;SDS011;59230;54.164;-3.124;2023-04-24T05:11:13;16.75;;;3.25;;
47009;SDS011;59230;54.164;-3.124;2023-04-24T05:13:40;17.00;;;3.67;;
47009;SDS011;59230;54.164;-3.124;2023-04-24T05:16:05;14.00;;;3.03;;
47009;SDS011;59230;54.164;-3.124;2023-04-24T05:18:31;12.25;;;3.28;;
47009;SDS011;59230;54.164;-3.124;2023-04-24T05:20:56;15.20;;;3.35;;
47009;SDS011;59230;54.164;-3.124;2023-04-24T05:23:22;15.77;;;3.13;;
47009;SDS011;59230;54.164;-3.124;2023-04-24T05:25:47;16.13;;;3.63;;
47009;SDS011;59230;54.164;-3.124;2023-04-24T05:28:13;12.85;;;2.92;;
47009;SDS011;59230;54.164;-3.124;2023-04-24T05:30:38;19.05;;;3.30;;
47009;SDS011;59230;54.164;-3.124;2023-04-24T05:33:03;22.38;;;4.18;;
47009;SDS011;59230;54.164;-3.124;2023-04-24T05:35:29;16.95;;;3.63;;
47009;SDS011;59230;54.164;-3.124;2023-04-24T05:37:54;14.70;;;3.10;;
47009;SDS011;59230;54.164;-3.124;2023-04-24T05:40:20;13.52;;;2.88;;
47009;SDS011;59230;54.164;-3.124;2023-04-24T05:42:45;11.07;;;2.58;;
47009;SDS011;59230;54.164;-3.124;2023-04-24T05:45:11;22.85;;;3.15;;
47009;SDS011;59230;54.164;-3.124;2023-04-24T05:47:41;20.42;;;3.72;;
47009;SDS011;59230;54.164;-3.124;2023-04-24T05:50:07;27.10;;;3.42;;
47009;SDS011;59230;54.164;-3.124;2023-04-24T05:52:33;16.05;;;3.42;;
47009;SDS011;59230;54.164;-3.124;2023-04-24T05:54:58;19.58;;;3.35;;
47009;SDS011;59230;54.164;-3.124;2023-04-24T05:57:24;14.18;;;2.95;;
47009;SDS011;59230;54.164;-3.124;2023-04-24T05:59:50;14.70;;;3.10;;
47009;SDS011;59230;54.164;-3.124;2023-04-24T06:02:15;13.85;;;2.85;;
47009;SDS011;59230;54.164;-3.124;2023-04-24T06:04:41;11.43;;;3.35;;
47009;SDS011;59230;54.164;-3.124;2023-04-24T06:07:07;14.45;;;3.20;;
47009;SDS011;59230;54.164;-3.124;2023-04-24T06:09:32;15.65;;;3.55;;
47009;SDS011;59230;54.164;-3.124;2023-04-24T06:11:57;16.60;;;3.20;;
47009;SDS011;59230;54.164;-3.124;2023-04-24T06:14:24;13.75;;;3.63;;
47009;SDS011;59230;54.164;-3.124;2023-04-24T06:16:50;12.07;;;3.35;;
47009;SDS011;59230;54.164;-3.124;2023-04-24T06:19:16;15.38;;;3.05;;
47009;SDS011;59230;54.164;-3.124;2023-04-24T06:21:41;17.35;;;3.78;;
47009;SDS011;59230;54.164;-3.124;2023-04-24T06:24:06;19.92;;;4.35;;
47009;SDS011;59230;54.164;-3.124;2023-04-24T06:26:32;14.23;;;3.17;;
47009;SDS011;59230;54.164;-3.124;2023-04-24T06:28:57;14.48;;;2.95;;
47009;SDS011;59230;54.164;-3.124;2023-04-24T06:31:24;17.13;;;3.85;;
47009;SDS011;59230;54.164;-3.124;2023-04-24T06:33:50;18.20;;;3.70;;
47009;SDS011;59230;54.164;-3.124;2023-04-24T06:36:15;12.63;;;3.55;;
47009;SDS011;59230;54.164;-3.124;2023-04-24T06:38:41;17.90;;;3.55;;
47009;SDS011;59230;54.164;-3.124;2023-04-24T06:41:06;17.60;;;3.22;;
47009;SDS011;59230;54.164;-3.124;2023-04-24T06:43:32;28.17;;;4.13;;
47009;SDS011;59230;54.164;-3.124;2023-04-24T06:45:58;20.05;;;4.50;;
47009;SDS011;59230;54.164;-3.124;2023-04-24T06:48:24;20.65;;;3.63;;
47009;SDS011;59230;54.164;-3.124;2023-04-24T06:50:50;19.83;;;4.15;;
47009;SDS011;59230;54.164;-3.124;2023-04-24T06:53:20;17.27;;;3.47;;
47009;SDS011;59230;54.164;-3.124;2023-04-24T06:55:47;16.75;;;3.28;;
47009;SDS011;59230;54.164;-3.124;2023-04-24T06:58:14;18.27;;;3.28;;
47009;SDS011;59230;54.164;-3.124;2023-04-24T07:00:42;21.80;;;3.20;;
47009;SDS011;59230;54.164;-3.124;2023-04-24T07:03:09;19.80;;;3.75;;
47009;SDS011;59230;54.164;-3.124;2023-04-24T07:05:35;27.15;;;3.97;;
47009;SDS011;59230;54.164;-3.124;2023-04-24T07:08:03;18.50;;;3.67;;
47009;SDS011;59230;54.164;-3.124;2023-04-24T07:10:30;15.63;;;3.22;;
47009;SDS011;59230;54.164;-3.124;2023-04-24T07:12:55;25.08;;;3.47;;
47009;SDS011;59230;54.164;-3.124;2023-04-24T07:15:22;22.35;;;3.83;;
47009;SDS011;59230;54.164;-3.124;2023-04-24T07:17:49;21.35;;;3.38;;
47009;SDS011;59230;54.164;-3.124;2023-04-24T07:20:14;19.25;;;3.63;;
47009;SDS011;59230;54.164;-3.124;2023-04-24T07:22:43;17.23;;;3.55;;
47009;SDS011;59230;54.164;-3.124;2023-04-24T07:25:10;15.35;;;3.25;;
47009;SDS011;59230;54.164;-3.124;2023-04-24T07:27:36;17.45;;;3.15;;
47009;SDS011;59230;54.164;-3.124;2023-04-24T07:30:03;14.32;;;2.80;;
47009;SDS011;59230;54.164;-3.124;2023-04-24T07:32:30;13.55;;;3.03;;
47009;SDS011;59230;54.164;-3.124;2023-04-24T07:34:57;16.15;;;3.58;;
47009;SDS011;59230;54.164;-3.124;2023-04-24T07:37:24;15.93;;;3.33;;
47009;SDS011;59230;54.164;-3.124;2023-04-24T07:39:49;22.08;;;4.18;;
47009;SDS011;59230;54.164;-3.124;2023-04-24T07:42:14;18.50;;;3.58;;
47009;SDS011;59230;54.164;-3.124;2023-04-24T07:44:40;16.17;;;3.40;;
47009;SDS011;59230;54.164;-3.124;2023-04-24T07:47:09;18.35;;;3.30;;
47009;SDS011;59230;54.164;-3.124;2023-04-24T07:49:36;18.60;;;3.80;;
47009;SDS011;59230;54.164;-3.124;2023-04-24T07:52:01;20.60;;;3.40;;
47009;SDS011;59230;54.164;-3.124;2023-04-24T07:54:28;24.55;;;3.53;;
47009;SDS011;59230;54.164;-3.124;2023-04-24T07:56:55;14.73;;;3.03;;
47009;SDS011;59230;54.164;-3.124;2023-04-24T07:59:23;17.65;;;2.88;;
47009;SDS011;59230;54.164;-3.124;2023-04-24T08:01:49;13.27;;;3.10;;
47009;SDS011;59230;54.164;-3.124;2023-04-24T08:04:17;14.50;;;2.75;;
47009;SDS011;59230;54.164;-3.124;2023-04-24T08:06:47;10.73;;;3.20;;
47009;SDS011;59230;54.164;-3.124;2023-04-24T08:09:14;12.90;;;3.25;;
47009;SDS011;59230;54.164;-3.124;2023-04-24T08:11:41;20.08;;;3.30;;
47009;SDS011;59230;54.164;-3.124;2023-04-24T08:14:08;15.85;;;3.45;;
47009;SDS011;59230;54.164;-3.124;2023-04-24T08:16:37;15.00;;;3.30;;
47009;SDS011;59230;54.164;-3.124;2023-04-24T08:19:02;18.88;;;3.50;;
47009;SDS011;59230;54.164;-3.124;2023-04-24T08:21:29;22.77;;;3.50;;
47009;SDS011;59230;54.164;-3.124;2023-04-24T08:23:54;13.20;;;2.78;;
47009;SDS011;59230;54.164;-3.124;2023-04-24T08:26:23;11.80;;;2.95;;
47009;SDS011;59230;54.164;-3.124;2023-04-24T08:28:48;20.67;;;3.28;;
47009;SDS011;59230;54.164;-3.124;2023-04-24T08:31:14;14.10;;;2.97;;
47009;SDS011;59230;54.164;-3.124;2023-04-24T08:33:44;15.95;;;3.55;;
47009;SDS011;59230;54.164;-3.124;2023-04-24T08:36:14;16.00;;;3.45;;
47009;SDS011;59230;54.164;-3.124;2023-04-24T08:38:45;12.65;;;2.95;;
47009;SDS011;59230;54.164;-3.124;2023-04-24T08:41:17;12.95;;;2.75;;
47009;SDS011;59230;54.164;-3.124;2023-04-24T08:43:47;13.68;;;2.63;;
47009;SDS011;59230;54.164;-3.124;2023-04-24T08:46:16;11.88;;;2.80;;
47009;SDS011;59230;54.164;-3.124;2023-04-24T08:48:41;11.68;;;2.63;;
47009;SDS011;59230;54.164;-3.124;2023-04-24T08:51:07;15.13;;;3.15;;
47009;SDS011;59230;54.164;-3.124;2023-04-24T08:53:33;14.45;;;2.95;;
47009;SDS011;59230;54.164;-3.124;2023-04-24T08:56:01;14.70;;;2.50;;
47009;SDS011;59230;54.164;-3.124;2023-04-24T08:58:27;12.07;;;3.10;;
47009;SDS011;59230;54.164;-3.124;2023-04-24T09:00:57;14.05;;;2.63;;
47009;SDS011;59230;54.164;-3.124;2023-04-24T09:03:24;13.15;;;2.40;;
47009;SDS011;59230;54.164;-3.124;2023-04-24T09:05:50;18.23;;;2.75;;
47009;SDS011;59230;54.164;-3.124;2023-04-24T09:08:19;12.65;;;2.45;;
47009;SDS011;59230;54.164;-3.124;2023-04-24T09:10:46;12.90;;;2.35;;
47009;SDS011;59230;54.164;-3.124;2023-04-24T09:13:11;14.10;;;2.90;;
47009;SDS011;59230;54.164;-3.124;2023-04-24T09:15:37;10.90;;;2.58;;
47009;SDS011;59230;54.164;-3.124;2023-04-24T09:18:07;10.70;;;2.97;;
47009;SDS011;59230;54.164;-3.124;2023-04-24T09:20:56;9.30;;;2.90;;
47009;SDS011;59230;54.164;-3.124;2023-04-24T09:23:32;12.40;;;2.17;;
47009;SDS011;59230;54.164;-3.124;2023-04-24T09:25:58;13.05;;;2.67;;
47009;SDS011;59230;54.164;-3.124;2023-04-24T09:28:29;10.15;;;2.88;;
47009;SDS011;59230;54.164;-3.124;2023-04-24T09:31:06;8.18;;;2.10;;
47009;SDS011;59230;54.164;-3.124;2023-04-24T09:33:35;11.43;;;2.72;;
47009;SDS011;59230;54.164;-3.124;2023-04-24T09:36:02;13.23;;;2.60;;
47009;SDS011;59230;54.164;-3.124;2023-04-24T09:38:37;14.45;;;3.35;;
47009;SDS011;59230;54.164;-3.124;2023-04-24T09:41:08;18.25;;;2.65;;
47009;SDS011;59230;54.164;-3.124;2023-04-24T09:43:33;13.27;;;2.40;;
47009;SDS011;59230;54.164;-3.124;2023-04-24T09:46:06;16.80;;;2.55;;
47009;SDS011;59230;54.164;-3.124;2023-04-24T09:48:37;15.15;;;2.65;;
47009;SDS011;59230;54.164;-3.124;2023-04-24T09:51:04;12.43;;;2.72;;
47009;SDS011;59230;54.164;-3.124;2023-04-24T09:56:10;12.68;;;2.97;;
47009;SDS011;59230;54.164;-3.124;2023-04-24T09:58:41;14.35;;;2.30;;
47009;SDS011;59230;54.164;-3.124;2023-04-24T10:01:08;10.77;;;2.88;;
47009;SDS011;59230;54.164;-3.124;2023-04-24T10:03:36;18.77;;;2.72;;
47009;SDS011;59230;54.164;-3.124;2023-04-24T10:06:05;11.07;;;2.75;;
47009;SDS011;59230;54.164;-3.124;2023-04-24T10:08:35;15.05;;;2.78;;
47009;SDS011;59230;54.164;-3.124;2023-04-24T10:11:02;12.02;;;2.55;;
47009;SDS011;59230;54.164;-3.124;2023-04-24T10:13:28;11.43;;;2.65;;
47009;SDS011;59230;54.164;-3.124;2023-04-24T10:15:54;12.40;;;3.03;;
47009;SDS011;59230;54.164;-3.124;2023-04-24T10:18:22;8.27;;;2.10;;
47009;SDS011;59230;54.164;-3.124;2023-04-24T10:20:52;10.52;;;2.33;;
47009;SDS011;59230;54.164;-3.124;2023-04-24T10:23:20;12.27;;;2.25;;
47009;SDS011;59230;54.164;-3.124;2023-04-24T10:25:52;8.75;;;2.50;;
47009;SDS011;59230;54.164;-3.124;2023-04-24T10:28:22;11.40;;;2.58;;
47009;SDS011;59230;54.164;-3.124;2023-04-24T10:30:52;8.27;;;2.38;;
47009;SDS011;59230;54.164;-3.124;2023-04-24T10:33:20;17.67;;;2.85;;
47009;SDS011;59230;54.164;-3.124;2023-04-24T10:35:47;12.43;;;2.70;;
47009;SDS011;59230;54.164;-3.124;2023-04-24T10:38:22;12.85;;;3.22;;
47009;SDS011;59230;54.164;-3.124;2023-04-24T10:40:56;18.25;;;2.60;;
47009;SDS011;59230;54.164;-3.124;2023-04-24T10:43:48;14.80;;;2.45;;
47009;SDS011;59230;54.164;-3.124;2023-04-24T10:46:36;10.38;;;2.53;;
47009;SDS011;59230;54.164;-3.124;2023-04-24T10:49:06;8.63;;;2.58;;
47009;SDS011;59230;54.164;-3.124;2023-04-24T10:51:47;12.07;;;2.38;;
47009;SDS011;59230;54.164;-3.124;2023-04-24T10:54:25;8.57;;;2.28;;
47009;SDS011;59230;54.164;-3.124;2023-04-24T10:56:52;9.32;;;2.38;;
47009;SDS011;59230;54.164;-3.124;2023-04-24T10:59:26;7.68;;;2.03;;
47009;SDS011;59230;54.164;-3.124;2023-04-24T11:01:55;11.15;;;2.47;;
47009;SDS011;59230;54.164;-3.124;2023-04-24T11:04:34;11.45;;;2.42;;
47009;SDS011;59230;54.164;-3.124;2023-04-24T11:07:03;10.65;;;2.40;;
47009;SDS011;59230;54.164;-3.124;2023-04-24T11:09:35;16.38;;;2.72;;
47009;SDS011;59230;54.164;-3.124;2023-04-24T11:12:08;7.70;;;1.90;;
47009;SDS011;59230;54.164;-3.124;2023-04-24T11:17:39;9.00;;;2.58;;
47009;SDS011;59230;54.164;-3.124;2023-04-24T11:20:16;10.27;;;2.20;;
47009;SDS011;59230;54.164;-3.124;2023-04-24T11:22:43;9.27;;;2.05;;
47009;SDS011;59230;54.164;-3.124;2023-04-24T11:25:12;9.77;;;1.75;;
47009;SDS011;59230;54.164;-3.124;2023-04-24T11:27:42;9.65;;;1.90;;
47009;SDS011;59230;54.164;-3.124;2023-04-24T11:30:10;8.23;;;1.95;;
47009;SDS011;59230;54.164;-3.124;2023-04-24T11:32:37;7.63;;;2.10;;
47009;SDS011;59230;54.164;-3.124;2023-04-24T11:35:15;11.27;;;2.05;;
47009;SDS011;59230;54.164;-3.124;2023-04-24T11:37:50;9.60;;;2.13;;
47009;SDS011;59230;54.164;-3.124;2023-04-24T11:40:19;8.30;;;2.15;;
47009;SDS011;59230;54.164;-3.124;2023-04-24T11:42:50;13.18;;;2.30;;
47009;SDS011;59230;54.164;-3.124;2023-04-24T11:45:24;7.40;;;1.80;;
47009;SDS011;59230;54.164;-3.124;2023-04-24T11:47:51;7.55;;;1.77;;
47009;SDS011;59230;54.164;-3.124;2023-04-24T11:50:21;12.45;;;2.15;;
47009;SDS011;59230;54.164;-3.124;2023-04-24T11:52:50;9.55;;;2.13;;
47009;SDS011;59230;54.164;-3.124;2023-04-24T11:57:52;15.00;;;2.47;;
47009;SDS011;59230;54.164;-3.124;2023-04-24T12:00:25;7.28;;;2.15;;
47009;SDS011;59230;54.164;-3.124;2023-04-24T12:05:38;10.52;;;2.45;;
47009;SDS011;59230;54.164;-3.124;2023-04-24T12:08:05;7.90;;;2.08;;
47009;SDS011;59230;54.164;-3.124;2023-04-24T12:10:31;8.40;;;2.15;;
47009;SDS011;59230;54.164;-3.124;2023-04-24T12:12:59;7.20;;;1.80;;
47009;SDS011;59230;54.164;-3.124;2023-04-24T12:15:27;13.88;;;2.30;;
47009;SDS011;59230;54.164;-3.124;2023-04-24T12:17:54;10.90;;;2.35;;
47009;SDS011;59230;54.164;-3.124;2023-04-24T12:20:28;10.13;;;2.05;;
47009;SDS011;59230;54.164;-3.124;2023-04-24T12:22:57;6.68;;;2.30;;
47009;SDS011;59230;54.164;-3.124;2023-04-24T12:25:28;6.40;;;2.10;;
47009;SDS011;59230;54.164;-3.124;2023-04-24T12:27:55;9.70;;;2.00;;
47009;SDS011;59230;54.164;-3.124;2023-04-24T12:33:12;8.35;;;1.90;;
47009;SDS011;59230;54.164;-3.124;2023-04-24T12:35:39;14.93;;;2.67;;
47009;SDS011;59230;54.164;-3.124;2023-04-24T12:38:09;11.65;;;2.20;;
47009;SDS011;59230;54.164;-3.124;2023-04-24T12:40:38;8.40;;;2.00;;
47009;SDS011;59230;54.164;-3.124;2023-04-24T12:43:12;9.30;;;2.10;;
47009;SDS011;59230;54.164;-3.124;2023-04-24T12:45:44;8.00;;;1.77;;
47009;SDS011;59230;54.164;-3.124;2023-04-24T12:48:10;8.55;;;1.98;;
47009;SDS011;59230;54.164;-3.124;2023-04-24T12:50:36;12.75;;;2.28;;
47009;SDS011;59230;54.164;-3.124;2023-04-24T12:53:01;14.70;;;2.60;;
47009;SDS011;59230;54.164;-3.124;2023-04-24T12:55:30;9.20;;;1.92;;
47009;SDS011;59230;54.164;-3.124;2023-04-24T12:57:55;8.38;;;2.00;;
47009;SDS011;59230;54.164;-3.124;2023-04-24T13:00:24;10.82;;;1.90;;
47009;SDS011;59230;54.164;-3.124;2023-04-24T13:02:49;10.60;;;2.15;;
47009;SDS011;59230;54.164;-3.124;2023-04-24T13:05:15;12.43;;;2.20;;
47009;SDS011;59230;54.164;-3.124;2023-04-24T13:07:43;8.60;;;2.25;;
47009;SDS011;59230;54.164;-3.124;2023-04-24T13:10:09;8.68;;;2.17;;
47009;SDS011;59230;54.164;-3.124;2023-04-24T13:12:36;8.43;;;2.10;;
47009;SDS011;59230;54.164;-3.124;2023-04-24T13:15:01;9.10;;;2.17;;
47009;SDS011;59230;54.164;-3.124;2023-04-24T13:17:31;9.93;;;1.80;;
47009;SDS011;59230;54.164;-3.124;2023-04-24T13:19:56;8.82;;;2.13;;
47009;SDS011;59230;54.164;-3.124;2023-04-24T13:22:22;10.52;;;2.03;;
47009;SDS011;59230;54.164;-3.124;2023-04-24T13:24:48;10.00;;;2.08;;
47009;SDS011;59230;54.164;-3.124;2023-04-24T13:27:17;7.97;;;1.95;;
47009;SDS011;59230;54.164;-3.124;2023-04-24T13:29:43;8.85;;;2.33;;
47009;SDS011;59230;54.164;-3.124;2023-04-24T13:32:11;7.78;;;2.28;;
47009;SDS011;59230;54.164;-3.124;2023-04-24T13:34:40;9.75;;;2.00;;
47009;SDS011;59230;54.164;-3.124;2023-04-24T13:37:05;6.95;;;2.03;;
47009;SDS011;59230;54.164;-3.124;2023-04-24T13:39:36;8.52;;;2.30;;
47009;SDS011;59230;54.164;-3.124;2023-04-24T13:42:01;14.40;;;2.15;;
47009;SDS011;59230;54.164;-3.124;2023-04-24T13:44:29;6.97;;;1.65;;
47009;SDS011;59230;54.164;-3.124;2023-04-24T13:46:54;7.53;;;2.30;;
47009;SDS011;59230;54.164;-3.124;2023-04-24T13:49:22;9.95;;;1.98;;
47009;SDS011;59230;54.164;-3.124;2023-04-24T13:51:56;6.45;;;1.40;;
47009;SDS011;59230;54.164;-3.124;2023-04-24T13:54:21;5.30;;;1.60;;
47009;SDS011;59230;54.164;-3.124;2023-04-24T13:56:48;6.18;;;1.58;;
47009;SDS011;59230;54.164;-3.124;2023-04-24T13:59:17;11.30;;;1.70;;
47009;SDS011;59230;54.164;-3.124;2023-04-24T14:01:44;8.52;;;2.00;;
47009;SDS011;59230;54.164;-3.124;2023-04-24T14:04:10;9.45;;;1.77;;
47009;SDS011;59230;54.164;-3.124;2023-04-24T14:06:37;9.98;;;1.92;;
47009;SDS011;59230;54.164;-3.124;2023-04-24T14:09:02;10.60;;;1.92;;
47009;SDS011;59230;54.164;-3.124;2023-04-24T14:11:31;7.72;;;1.83;;
47009;SDS011;59230;54.164;-3.124;2023-04-24T14:13:57;11.10;;;2.50;;
47009;SDS011;59230;54.164;-3.124;2023-04-24T14:16:22;15.77;;;2.28;;
47009;SDS011;59230;54.164;-3.124;2023-04-24T14:18:48;11.43;;;2.25;;
47009;SDS011;59230;54.164;-3.124;2023-04-24T14:21:13;19.48;;;2.40;;
47009;SDS011;59230;54.164;-3.124;2023-04-24T14:23:40;10.38;;;2.25;;
47009;SDS011;59230;54.164;-3.124;2023-04-24T14:26:08;11.57;;;2.35;;
47009;SDS011;59230;54.164;-3.124;2023-04-24T14:28:35;13.90;;;2.60;;
47009;SDS011;59230;54.164;-3.124;2023-04-24T14:31:01;9.10;;;2.42;;
47009;SDS011;59230;54.164;-3.124;2023-04-24T14:33:26;12.93;;;2.08;;
47009;SDS011;59230;54.164;-3.124;2023-04-24T14:35:55;10.68;;;2.33;;
47009;SDS011;59230;54.164;-3.124;2023-04-24T14:38:21;6.30;;;2.03;;
47009;SDS011;59230;54.164;-3.124;2023-04-24T14:40:51;7.70;;;2.17;;